Mansfield Hollow, Connecticut
Current Conditions -  °F | °C
As of 3:52 AM on Thursday 18 Dec 2014 (Local Time) from KIJD Reporting Station
Overcast Overcast  
Wind Chill: 32°   Ceiling: 7500
Heat Index: 39°   Visibility: 10mi
Dew Point: 29°   Wind: 10mph
Humidity: 67%   Direction: 280°W
Pressure: 29.79"   Gusts: 20mph
Location:  41.7742°N, 72.196°W
Report Text: KIJD 180852Z AUTO 28009G17KT 250V320 10SM OVC075 04/M02 A2979 RMK AO2 SLP088 T00391017 53002
Loading
Personal Weather Stations






























Interactive Weather Map New forecast layout! Learn more

10-Day Weather Forecast

Advertisements
Track Severe Weather on mobile